sensor_id;sensor_type;location;lat;lon;timestamp;pressure;altitude;pressure_sealevel;temperature;humidity
70304;BME280;57712;48.752;11.348;2023-01-24T00:01:00;98916.94;;;2.02;100.00
70304;BME280;57712;48.752;11.348;2023-01-24T00:03:27;98905.34;;;2.02;100.00
70304;BME280;57712;48.752;11.348;2023-01-24T00:05:53;98911.13;;;1.92;100.00
70304;BME280;57712;48.752;11.348;2023-01-24T00:08:20;98912.69;;;1.93;100.00
70304;BME280;57712;48.752;11.348;2023-01-24T00:10:57;98902.81;;;1.97;100.00
70304;BME280;57712;48.752;11.348;2023-01-24T00:13:25;98897.28;;;1.93;100.00
70304;BME280;57712;48.752;11.348;2023-01-24T00:16:01;98895.03;;;1.95;100.00
70304;BME280;57712;48.752;11.348;2023-01-24T00:18:27;98897.66;;;1.83;100.00
70304;BME280;57712;48.752;11.348;2023-01-24T00:21:00;98901.88;;;1.93;100.00
70304;BME280;57712;48.752;11.348;2023-01-24T00:23:27;98901.59;;;1.86;100.00
70304;BME280;57712;48.752;11.348;2023-01-24T00:25:54;98906.53;;;1.84;100.00
70304;BME280;57712;48.752;11.348;2023-01-24T00:28:20;98903.84;;;1.84;100.00
70304;BME280;57712;48.752;11.348;2023-01-24T00:30:47;98897.16;;;1.90;100.00
70304;BME280;57712;48.752;11.348;2023-01-24T00:33:13;98902.09;;;1.88;100.00
70304;BME280;57712;48.752;11.348;2023-01-24T00:35:40;98907.41;;;1.96;100.00
70304;BME280;57712;48.752;11.348;2023-01-24T00:38:06;98901.88;;;1.93;100.00
70304;BME280;57712;48.752;11.348;2023-01-24T00:40:32;98907.94;;;1.90;100.00
70304;BME280;57712;48.752;11.348;2023-01-24T00:42:59;98909.19;;;1.92;100.00
70304;BME280;57712;48.752;11.348;2023-01-24T00:45:25;98910.44;;;1.95;100.00
70304;BME280;57712;48.752;11.348;2023-01-24T00:47:52;98897.28;;;1.93;100.00
70304;BME280;57712;48.752;11.348;2023-01-24T00:50:18;98914.72;;;1.96;100.00
70304;BME280;57712;48.752;11.348;2023-01-24T00:52:45;98909.66;;;1.94;100.00
70304;BME280;57712;48.752;11.348;2023-01-24T00:55:12;98909.53;;;1.91;100.00
70304;BME280;57712;48.752;11.348;2023-01-24T00:57:38;98908.13;;;1.85;100.00
70304;BME280;57712;48.752;11.348;2023-01-24T01:00:05;98912.56;;;1.89;100.00
70304;BME280;57712;48.752;11.348;2023-01-24T01:02:32;98908.09;;;1.93;100.00
70304;BME280;57712;48.752;11.348;2023-01-24T01:04:58;98912.41;;;1.86;100.00
70304;BME280;57712;48.752;11.348;2023-01-24T01:07:25;98914.78;;;1.87;100.00
70304;BME280;57712;48.752;11.348;2023-01-24T01:09:51;98916.16;;;2.02;100.00
70304;BME280;57712;48.752;11.348;2023-01-24T01:12:17;98924.16;;;1.90;100.00
70304;BME280;57712;48.752;11.348;2023-01-24T01:14:44;98919.56;;;1.90;100.00
70304;BME280;57712;48.752;11.348;2023-01-24T01:17:10;98923.22;;;1.86;100.00
70304;BME280;57712;48.752;11.348;2023-01-24T01:19:37;98923.63;;;1.96;100.00
70304;BME280;57712;48.752;11.348;2023-01-24T01:22:04;98929.56;;;1.90;100.00
70304;BME280;57712;48.752;11.348;2023-01-24T01:24:31;98933.66;;;1.96;100.00
70304;BME280;57712;48.752;11.348;2023-01-24T01:26:57;98934.78;;;1.95;100.00
70304;BME280;57712;48.752;11.348;2023-01-24T01:29:24;98938.41;;;1.99;100.00
70304;BME280;57712;48.752;11.348;2023-01-24T01:31:50;98941.59;;;2.01;100.00
70304;BME280;57712;48.752;11.348;2023-01-24T01:34:17;98937.22;;;1.88;100.00
70304;BME280;57712;48.752;11.348;2023-01-24T01:36:44;98938.88;;;2.01;100.00
70304;BME280;57712;48.752;11.348;2023-01-24T01:39:11;98935.50;;;2.04;100.00
70304;BME280;57712;48.752;11.348;2023-01-24T01:41:37;98935.88;;;1.94;100.00
70304;BME280;57712;48.752;11.348;2023-01-24T01:44:22;98938.41;;;1.99;100.00
70304;BME280;57712;48.752;11.348;2023-01-24T01:47:16;98935.66;;;2.08;100.00
70304;BME280;57712;48.752;11.348;2023-01-24T01:49:48;98937.84;;;2.14;100.00
70304;BME280;57712;48.752;11.348;2023-01-24T01:52:17;98933.16;;;2.02;100.00
70304;BME280;57712;48.752;11.348;2023-01-24T01:54:45;98938.69;;;2.06;100.00
70304;BME280;57712;48.752;11.348;2023-01-24T01:57:17;98944.25;;;2.10;100.00
70304;BME280;57712;48.752;11.348;2023-01-24T01:59:50;98941.66;;;2.13;100.00
70304;BME280;57712;48.752;11.348;2023-01-24T02:02:19;98940.41;;;2.11;100.00
70304;BME280;57712;48.752;11.348;2023-01-24T02:05:00;98948.84;;;2.09;100.00
70304;BME280;57712;48.752;11.348;2023-01-24T02:07:50;98950.16;;;2.03;100.00
70304;BME280;57712;48.752;11.348;2023-01-24T02:10:21;98944.88;;;2.07;100.00
70304;BME280;57712;48.752;11.348;2023-01-24T02:12:51;98945.66;;;2.07;100.00
70304;BME280;57712;48.752;11.348;2023-01-24T02:15:21;98944.09;;;2.06;100.00
70304;BME280;57712;48.752;11.348;2023-01-24T02:18:07;98952.38;;;2.01;100.00
70304;BME280;57712;48.752;11.348;2023-01-24T02:20:40;98959.38;;;2.02;100.00
70304;BME280;57712;48.752;11.348;2023-01-24T02:26:21;98960.03;;;1.99;100.00
70304;BME280;57712;48.752;11.348;2023-01-24T02:31:17;98960.03;;;1.99;100.00
70304;BME280;57712;48.752;11.348;2023-01-24T02:33:44;98956.22;;;2.00;100.00
70304;BME280;57712;48.752;11.348;2023-01-24T02:36:12;98959.09;;;1.95;100.00
70304;BME280;57712;48.752;11.348;2023-01-24T02:38:41;98955.44;;;1.99;100.00
70304;BME280;57712;48.752;11.348;2023-01-24T02:41:10;98963.03;;;1.97;100.00
70304;BME280;57712;48.752;11.348;2023-01-24T02:43:41;98960.16;;;2.02;100.00
70304;BME280;57712;48.752;11.348;2023-01-24T02:46:10;98962.22;;;2.06;100.00
70304;BME280;57712;48.752;11.348;2023-01-24T02:48:37;98951.72;;;2.04;100.00
70304;BME280;57712;48.752;11.348;2023-01-24T02:51:03;98960.47;;;2.10;100.00
70304;BME280;57712;48.752;11.348;2023-01-24T02:53:48;98956.69;;;2.02;100.00
70304;BME280;57712;48.752;11.348;2023-01-24T02:56:15;98960.34;;;1.97;100.00
70304;BME280;57712;48.752;11.348;2023-01-24T02:59:00;98955.91;;;1.93;100.00
70304;BME280;57712;48.752;11.348;2023-01-24T03:01:27;98963.94;;;2.10;100.00
70304;BME280;57712;48.752;11.348;2023-01-24T03:03:54;98959.38;;;2.02;100.00
70304;BME280;57712;48.752;11.348;2023-01-24T03:06:21;98960.50;;;2.01;100.00
70304;BME280;57712;48.752;11.348;2023-01-24T03:08:47;98958.44;;;1.98;100.00
70304;BME280;57712;48.752;11.348;2023-01-24T03:11:14;98948.84;;;2.09;100.00
70304;BME280;57712;48.752;11.348;2023-01-24T03:13:40;98951.59;;;2.00;100.00
70304;BME280;57712;48.752;11.348;2023-01-24T03:16:26;98948.38;;;2.07;100.00
70304;BME280;57712;48.752;11.348;2023-01-24T03:19:11;98954.25;;;2.09;100.00
70304;BME280;57712;48.752;11.348;2023-01-24T03:21:56;98954.25;;;2.09;100.00
70304;BME280;57712;48.752;11.348;2023-01-24T03:24:41;98953.97;;;2.02;100.00
70304;BME280;57712;48.752;11.348;2023-01-24T03:27:26;98958.06;;;2.08;100.00
70304;BME280;57712;48.752;11.348;2023-01-24T03:30:12;98957.25;;;2.08;100.00
70304;BME280;57712;48.752;11.348;2023-01-24T03:33:01;98959.50;;;2.06;100.00
70304;BME280;57712;48.752;11.348;2023-01-24T03:35:50;98958.72;;;2.05;100.00
70304;BME280;57712;48.752;11.348;2023-01-24T03:38:24;98954.72;;;2.11;100.00
70304;BME280;57712;48.752;11.348;2023-01-24T03:41:09;98950.03;;;1.99;100.00
70304;BME280;57712;48.752;11.348;2023-01-24T03:43:36;98946.19;;;2.00;100.00
70304;BME280;57712;48.752;11.348;2023-01-24T03:46:03;98942.50;;;2.05;100.00
70304;BME280;57712;48.752;11.348;2023-01-24T03:48:29;98945.91;;;1.93;100.00
70304;BME280;57712;48.752;11.348;2023-01-24T03:51:04;98947.34;;;1.91;100.00
70304;BME280;57712;48.752;11.348;2023-01-24T03:53:49;98955.56;;;2.03;100.00
70304;BME280;57712;48.752;11.348;2023-01-24T03:56:15;98952.03;;;2.11;100.00
70304;BME280;57712;48.752;11.348;2023-01-24T03:58:42;98949.50;;;2.06;100.00
70304;BME280;57712;48.752;11.348;2023-01-24T04:01:09;98956.69;;;2.02;100.00
70304;BME280;57712;48.752;11.348;2023-01-24T04:03:35;98956.16;;;2.09;100.00
70304;BME280;57712;48.752;11.348;2023-01-24T04:06:02;98962.81;;;2.11;100.00
70304;BME280;57712;48.752;11.348;2023-01-24T04:08:28;98960.97;;;2.03;100.00
70304;BME280;57712;48.752;11.348;2023-01-24T04:10:56;98958.91;;;2.00;100.00
70304;BME280;57712;48.752;11.348;2023-01-24T04:13:23;98964.41;;;2.12;100.00
70304;BME280;57712;48.752;11.348;2023-01-24T04:15:49;98950.59;;;2.05;100.00
70304;BME280;57712;48.752;11.348;2023-01-24T04:18:16;98952.22;;;1.97;100.00
70304;BME280;57712;48.752;11.348;2023-01-24T04:20:43;98951.94;;;1.99;100.00
70304;BME280;57712;48.752;11.348;2023-01-24T04:23:10;98955.25;;;1.96;100.00
70304;BME280;57712;48.752;11.348;2023-01-24T04:25:38;98963.56;;;1.91;100.00
70304;BME280;57712;48.752;11.348;2023-01-24T04:28:04;98955.56;;;2.03;100.00
70304;BME280;57712;48.752;11.348;2023-01-24T04:30:31;98956.47;;;2.07;100.00
70304;BME280;57712;48.752;11.348;2023-01-24T04:32:58;98951.59;;;2.00;100.00
70304;BME280;57712;48.752;11.348;2023-01-24T04:35:28;98953.97;;;2.02;100.00
70304;BME280;57712;48.752;11.348;2023-01-24T04:38:04;98952.38;;;2.01;100.00
70304;BME280;57712;48.752;11.348;2023-01-24T04:40:30;98957.50;;;1.94;100.00
70304;BME280;57712;48.752;11.348;2023-01-24T04:42:57;98963.03;;;1.97;100.00
70304;BME280;57712;48.752;11.348;2023-01-24T04:45:24;98972.59;;;1.95;100.00
70304;BME280;57712;48.752;11.348;2023-01-24T04:47:53;98962.25;;;1.97;100.00
70304;BME280;57712;48.752;11.348;2023-01-24T04:50:19;98950.53;;;1.93;100.00
70304;BME280;57712;48.752;11.348;2023-01-24T04:52:46;98953.50;;;2.00;100.00
70304;BME280;57712;48.752;11.348;2023-01-24T04:55:15;98957.59;;;2.06;100.00
70304;BME280;57712;48.752;11.348;2023-01-24T04:57:42;98959.50;;;2.06;100.00
70304;BME280;57712;48.752;11.348;2023-01-24T05:00:09;98961.41;;;2.05;100.00
70304;BME280;57712;48.752;11.348;2023-01-24T05:02:36;98970.84;;;1.99;100.00
70304;BME280;57712;48.752;11.348;2023-01-24T05:05:04;98970.19;;;2.02;100.00
70304;BME280;57712;48.752;11.348;2023-01-24T05:07:32;98970.47;;;2.09;100.00
70304;BME280;57712;48.752;11.348;2023-01-24T05:09:58;98984.44;;;2.11;100.00
70304;BME280;57712;48.752;11.348;2023-01-24T05:12:25;98971.78;;;2.03;100.00
70304;BME280;57712;48.752;11.348;2023-01-24T05:14:51;98974.94;;;2.05;100.00
70304;BME280;57712;48.752;11.348;2023-01-24T05:17:18;98979.41;;;2.01;100.00
70304;BME280;57712;48.752;11.348;2023-01-24T05:19:44;98980.34;;;2.05;100.00
70304;BME280;57712;48.752;11.348;2023-01-24T05:22:11;98977.94;;;2.12;100.00
70304;BME280;57712;48.752;11.348;2023-01-24T05:24:37;98973.81;;;2.06;100.00
70304;BME280;57712;48.752;11.348;2023-01-24T05:27:04;98971.44;;;2.05;100.00
70304;BME280;57712;48.752;11.348;2023-01-24T05:29:30;98979.22;;;2.06;100.00
70304;BME280;57712;48.752;11.348;2023-01-24T05:31:57;98976.81;;;2.13;100.00
70304;BME280;57712;48.752;11.348;2023-01-24T05:34:23;98970.97;;;2.02;100.00
70304;BME280;57712;48.752;11.348;2023-01-24T05:36:50;98980.53;;;2.00;100.00
70304;BME280;57712;48.752;11.348;2023-01-24T05:39:16;98986.75;;;1.92;100.00
70304;BME280;57712;48.752;11.348;2023-01-24T05:41:43;98982.75;;;1.98;100.00
70304;BME280;57712;48.752;11.348;2023-01-24T05:44:09;98980.53;;;2.00;100.00
70304;BME280;57712;48.752;11.348;2023-01-24T05:46:36;98987.06;;;1.99;100.00
70304;BME280;57712;48.752;11.348;2023-01-24T05:49:03;98993.69;;;2.10;100.00
70304;BME280;57712;48.752;11.348;2023-01-24T05:51:29;98994.84;;;2.00;100.00
70304;BME280;57712;48.752;11.348;2023-01-24T05:53:56;98987.97;;;2.03;100.00
70304;BME280;57712;48.752;11.348;2023-01-24T05:56:23;98994.84;;;2.00;100.00
70304;BME280;57712;48.752;11.348;2023-01-24T05:58:49;98991.81;;;2.02;100.00
70304;BME280;57712;48.752;11.348;2023-01-24T06:01:18;99006.91;;;2.03;100.00
70304;BME280;57712;48.752;11.348;2023-01-24T06:03:47;98998.66;;;1.99;100.00
70304;BME280;57712;48.752;11.348;2023-01-24T06:06:16;98994.84;;;2.00;100.00
70304;BME280;57712;48.752;11.348;2023-01-24T06:08:43;99006.44;;;2.01;100.00
70304;BME280;57712;48.752;11.348;2023-01-24T06:11:13;99004.81;;;2.09;100.00
70304;BME280;57712;48.752;11.348;2023-01-24T06:13:41;99016.28;;;1.97;100.00
70304;BME280;57712;48.752;11.348;2023-01-24T06:16:13;99004.84;;;2.00;100.00
70304;BME280;57712;48.752;11.348;2023-01-24T06:18:41;99010.25;;;2.00;100.00
70304;BME280;57712;48.752;11.348;2023-01-24T06:21:16;99019.91;;;2.10;100.00
70304;BME280;57712;48.752;11.348;2023-01-24T06:23:44;99022.97;;;1.99;100.00
70304;BME280;57712;48.752;11.348;2023-01-24T06:26:16;99015.34;;;2.01;100.00
70304;BME280;57712;48.752;11.348;2023-01-24T06:28:43;99020.41;;;2.03;100.00
70304;BME280;57712;48.752;11.348;2023-01-24T06:31:25;99015.13;;;2.07;100.00
70304;BME280;57712;48.752;11.348;2023-01-24T06:39:15;99035.91;;;2.23;100.00
70304;BME280;57712;48.752;11.348;2023-01-24T06:41:42;99027.97;;;2.18;100.00
70304;BME280;57712;48.752;11.348;2023-01-24T06:44:10;99044.34;;;2.22;100.00
70304;BME280;57712;48.752;11.348;2023-01-24T06:46:37;99037.56;;;2.07;100.00
70304;BME280;57712;48.752;11.348;2023-01-24T06:49:04;99036.06;;;2.18;100.00
70304;BME280;57712;48.752;11.348;2023-01-24T06:51:31;99042.88;;;2.24;100.00
70304;BME280;57712;48.752;11.348;2023-01-24T06:53:59;99036.81;;;2.27;100.00
70304;BME280;57712;48.752;11.348;2023-01-24T06:56:29;99037.31;;;2.29;100.00
70304;BME280;57712;48.752;11.348;2023-01-24T06:58:55;99043.38;;;2.18;100.00
70304;BME280;57712;48.752;11.348;2023-01-24T07:01:21;99042.88;;;2.24;100.00
70304;BME280;57712;48.752;11.348;2023-01-24T07:03:48;99044.47;;;2.25;100.00
70304;BME280;57712;48.752;11.348;2023-01-24T07:06:15;99043.88;;;2.20;100.00
70304;BME280;57712;48.752;11.348;2023-01-24T07:08:42;99052.28;;;2.18;100.00
70304;BME280;57712;48.752;11.348;2023-01-24T07:11:08;99052.63;;;2.17;100.00
70304;BME280;57712;48.752;11.348;2023-01-24T07:13:35;99059.78;;;2.21;100.00
70304;BME280;57712;48.752;11.348;2023-01-24T07:16:01;99060.28;;;2.06;100.00
70304;BME280;57712;48.752;11.348;2023-01-24T07:18:28;99059.94;;;2.16;100.00
70304;BME280;57712;48.752;11.348;2023-01-24T07:20:55;99061.72;;;2.12;100.00
70304;BME280;57712;48.752;11.348;2023-01-24T07:23:23;99071.22;;;2.18;100.00
70304;BME280;57712;48.752;11.348;2023-01-24T07:25:51;99068.47;;;2.27;100.00
70304;BME280;57712;48.752;11.348;2023-01-24T07:28:18;99072.59;;;2.33;100.00
70304;BME280;57712;48.752;11.348;2023-01-24T07:30:45;99069.94;;;2.24;100.00
70304;BME280;57712;48.752;11.348;2023-01-24T07:33:15;99081.84;;;2.23;100.00
70304;BME280;57712;48.752;11.348;2023-01-24T07:35:42;99076.25;;;2.28;100.00
70304;BME280;57712;48.752;11.348;2023-01-24T07:38:09;99078.03;;;2.24;100.00
70304;BME280;57712;48.752;11.348;2023-01-24T07:40:38;99078.69;;;2.21;100.00
70304;BME280;57712;48.752;11.348;2023-01-24T07:43:05;99079.50;;;2.13;100.00
70304;BME280;57712;48.752;11.348;2023-01-24T07:45:32;99086.16;;;2.24;100.00
70304;BME280;57712;48.752;11.348;2023-01-24T07:48:01;99087.91;;;2.20;100.00
70304;BME280;57712;48.752;11.348;2023-01-24T07:50:28;99076.75;;;2.30;100.00
70304;BME280;57712;48.752;11.348;2023-01-24T07:52:57;99090.91;;;2.27;100.00
70304;BME280;57712;48.752;11.348;2023-01-24T07:55:24;99091.41;;;2.21;100.00
70304;BME280;57712;48.752;11.348;2023-01-24T07:57:51;99095.38;;;2.23;100.00
70304;BME280;57712;48.752;11.348;2023-01-24T08:00:18;99088.69;;;2.29;100.00
70304;BME280;57712;48.752;11.348;2023-01-24T08:02:45;99099.63;;;2.33;100.00
70304;BME280;57712;48.752;11.348;2023-01-24T08:05:11;99107.06;;;2.45;100.00
70304;BME280;57712;48.752;11.348;2023-01-24T08:07:38;99103.78;;;2.60;100.00
70304;BME280;57712;48.752;11.348;2023-01-24T08:10:05;99109.75;;;2.45;100.00
70304;BME280;57712;48.752;11.348;2023-01-24T08:12:32;99106.13;;;2.41;100.00
70304;BME280;57712;48.752;11.348;2023-01-24T08:14:58;99113.13;;;2.42;100.00
70304;BME280;57712;48.752;11.348;2023-01-24T08:17:25;99106.75;;;2.38;100.00
70304;BME280;57712;48.752;11.348;2023-01-24T08:19:51;99108.63;;;2.46;100.00
70304;BME280;57712;48.752;11.348;2023-01-24T08:22:23;99113.38;;;2.49;100.00
70304;BME280;57712;48.752;11.348;2023-01-24T08:24:50;99111.16;;;2.51;100.00
70304;BME280;57712;48.752;11.348;2023-01-24T08:27:17;99116.00;;;2.66;100.00
70304;BME280;57712;48.752;11.348;2023-01-24T08:29:44;99120.97;;;2.64;100.00
70304;BME280;57712;48.752;11.348;2023-01-24T08:32:12;99110.97;;;2.56;100.00
70304;BME280;57712;48.752;11.348;2023-01-24T08:34:39;99123.84;;;2.59;100.00
70304;BME280;57712;48.752;11.348;2023-01-24T08:37:05;99123.63;;;2.73;100.00
70304;BME280;57712;48.752;11.348;2023-01-24T08:39:32;99128.03;;;2.77;100.00
70304;BME280;57712;48.752;11.348;2023-01-24T08:41:58;99126.94;;;2.78;100.00
70304;BME280;57712;48.752;11.348;2023-01-24T08:44:24;99131.97;;;2.88;100.00
70304;BME280;57712;48.752;11.348;2023-01-24T08:46:51;99137.75;;;2.78;100.00
70304;BME280;57712;48.752;11.348;2023-01-24T08:49:17;99134.50;;;2.64;100.00
70304;BME280;57712;48.752;11.348;2023-01-24T08:51:44;99134.78;;;2.71;100.00
70304;BME280;57712;48.752;11.348;2023-01-24T08:54:12;99133.28;;;2.82;100.00
70304;BME280;57712;48.752;11.348;2023-01-24T08:56:39;99133.69;;;2.93;100.00
70304;BME280;57712;48.752;11.348;2023-01-24T08:59:06;99136.41;;;2.93;100.00
70304;BME280;57712;48.752;11.348;2023-01-24T09:01:32;99136.72;;;2.92;100.00
70304;BME280;57712;48.752;11.348;2023-01-24T09:03:59;99146.03;;;2.82;100.00
70304;BME280;57712;48.752;11.348;2023-01-24T09:06:26;99134.56;;;3.06;100.00
70304;BME280;57712;48.752;11.348;2023-01-24T09:08:54;99143.59;;;3.10;100.00
70304;BME280;57712;48.752;11.348;2023-01-24T09:11:21;99144.00;;;3.00;100.00
70304;BME280;57712;48.752;11.348;2023-01-24T09:13:48;99150.59;;;3.11;100.00
70304;BME280;57712;48.752;11.348;2023-01-24T09:16:15;99139.78;;;3.11;100.00
70304;BME280;57712;48.752;11.348;2023-01-24T09:18:42;99141.66;;;3.19;100.00
70304;BME280;57712;48.752;11.348;2023-01-24T09:21:08;99147.72;;;3.16;100.00
70304;BME280;57712;48.752;11.348;2023-01-24T09:23:35;99145.06;;;3.07;100.00
70304;BME280;57712;48.752;11.348;2023-01-24T09:26:02;99132.66;;;3.27;100.00
70304;BME280;57712;48.752;11.348;2023-01-24T09:28:29;99138.88;;;3.28;100.00
70304;BME280;57712;48.752;11.348;2023-01-24T09:30:55;99144.56;;;3.35;100.00
70304;BME280;57712;48.752;11.348;2023-01-24T09:33:21;99148.72;;;3.32;100.00
70304;BME280;57712;48.752;11.348;2023-01-24T09:35:56;99141.38;;;3.33;100.00
70304;BME280;57712;48.752;11.348;2023-01-24T09:38:24;99153.53;;;3.27;100.00
70304;BME280;57712;48.752;11.348;2023-01-24T09:43:41;99157.63;;;3.33;100.00
70304;BME280;57712;48.752;11.348;2023-01-24T09:48:47;99150.03;;;3.26;100.00
70304;BME280;57712;48.752;11.348;2023-01-24T09:51:19;99156.31;;;3.39;100.00
70304;BME280;57712;48.752;11.348;2023-01-24T09:53:52;99160.53;;;3.48;100.00
70304;BME280;57712;48.752;11.348;2023-01-24T09:56:41;99157.78;;;3.36;100.00
70304;BME280;57712;48.752;11.348;2023-01-24T09:59:22;99150.63;;;3.32;100.00
70304;BME280;57712;48.752;11.348;2023-01-24T10:01:50;99147.53;;;3.42;100.00
70304;BME280;57712;48.752;11.348;2023-01-24T10:04:19;99151.75;;;3.52;100.00
70304;BME280;57712;48.752;11.348;2023-01-24T10:09:39;99148.13;;;3.47;100.00
70304;BME280;57712;48.752;11.348;2023-01-24T10:18:38;99131.84;;;3.68;100.00
70304;BME280;57712;48.752;11.348;2023-01-24T10:21:10;99138.56;;;3.83;100.00
70304;BME280;57712;48.752;11.348;2023-01-24T10:23:42;99134.69;;;3.72;100.00
70304;BME280;57712;48.752;11.348;2023-01-24T10:26:20;99139.13;;;3.76;100.00
70304;BME280;57712;48.752;11.348;2023-01-24T10:28:50;99138.56;;;3.83;100.00
70304;BME280;57712;48.752;11.348;2023-01-24T10:31:27;99145.91;;;3.83;100.00
70304;BME280;57712;48.752;11.348;2023-01-24T10:34:14;99145.34;;;3.77;100.00
70304;BME280;57712;48.752;11.348;2023-01-24T10:36:51;99149.78;;;3.94;100.00
70304;BME280;57712;48.752;11.348;2023-01-24T10:39:19;99142.66;;;3.89;100.00
70304;BME280;57712;48.752;11.348;2023-01-24T10:41:46;99150.50;;;3.70;100.00
70304;BME280;57712;48.752;11.348;2023-01-24T10:44:26;99144.66;;;3.80;100.00
70304;BME280;57712;48.752;11.348;2023-01-24T10:49:26;99143.03;;;4.00;100.00
70304;BME280;57712;48.752;11.348;2023-01-24T10:52:11;99150.28;;;4.08;100.00
70304;BME280;57712;48.752;11.348;2023-01-24T10:54:49;99151.25;;;3.91;100.00
70304;BME280;57712;48.752;11.348;2023-01-24T10:57:23;99140.44;;;4.03;100.00
70304;BME280;57712;48.752;11.348;2023-01-24T10:59:52;99136.91;;;3.91;100.00
70304;BME280;57712;48.752;11.348;2023-01-24T11:02:21;99131.16;;;3.92;100.00
70304;BME280;57712;48.752;11.348;2023-01-24T11:05:04;99129.16;;;4.14;100.00
70304;BME280;57712;48.752;11.348;2023-01-24T11:07:34;99126.34;;;4.10;100.00
70304;BME280;57712;48.752;11.348;2023-01-24T11:15:55;99117.41;;;3.97;100.00
70304;BME280;57712;48.752;11.348;2023-01-24T11:18:28;99110.69;;;4.28;100.00
70304;BME280;57712;48.752;11.348;2023-01-24T11:21:26;99109.06;;;4.15;100.00
70304;BME280;57712;48.752;11.348;2023-01-24T11:26:40;99098.22;;;4.15;100.00
70304;BME280;57712;48.752;11.348;2023-01-24T11:29:18;99101.38;;;4.17;100.00
70304;BME280;57712;48.752;11.348;2023-01-24T11:31:48;99093.72;;;4.31;100.00
70304;BME280;57712;48.752;11.348;2023-01-24T11:39:53;99080.16;;;4.31;100.00
70304;BME280;57712;48.752;11.348;2023-01-24T11:53:13;99066.34;;;4.24;100.00
70304;BME280;57712;48.752;11.348;2023-01-24T11:55:55;99065.81;;;4.30;100.00
70304;BME280;57712;48.752;11.348;2023-01-24T11:58:44;99059.34;;;4.23;100.00
70304;BME280;57712;48.752;11.348;2023-01-24T12:09:23;99058.44;;;4.43;100.00
70304;BME280;57712;48.752;11.348;2023-01-24T12:12:00;99051.78;;;4.53;100.00
70304;BME280;57712;48.752;11.348;2023-01-24T12:14:45;99039.03;;;4.41;100.00
70304;BME280;57712;48.752;11.348;2023-01-24T12:22:24;99039.91;;;4.45;100.00
70304;BME280;57712;48.752;11.348;2023-01-24T12:25:02;99033.00;;;4.48;100.00
70304;BME280;57712;48.752;11.348;2023-01-24T12:27:33;99032.91;;;4.44;100.00
70304;BME280;57712;48.752;11.348;2023-01-24T12:30:05;99031.75;;;4.70;100.00
70304;BME280;57712;48.752;11.348;2023-01-24T12:32:49;99031.75;;;4.82;100.00
70304;BME280;57712;48.752;11.348;2023-01-24T12:35:31;99028.13;;;4.66;100.00
70304;BME280;57712;48.752;11.348;2023-01-24T12:40:50;99025.34;;;5.02;100.00
70304;BME280;57712;48.752;11.348;2023-01-24T12:43:35;99029.22;;;5.01;100.00
70304;BME280;57712;48.752;11.348;2023-01-24T12:49:30;99025.88;;;5.08;100.00
70304;BME280;57712;48.752;11.348;2023-01-24T12:52:23;99016.75;;;5.28;100.00
70304;BME280;57712;48.752;11.348;2023-01-24T12:55:22;99023.28;;;5.39;100.00
70304;BME280;57712;48.752;11.348;2023-01-24T12:58:03;99013.09;;;5.36;100.00
70304;BME280;57712;48.752;11.348;2023-01-24T13:00:50;99016.16;;;5.35;100.00
70304;BME280;57712;48.752;11.348;2023-01-24T13:03:29;99013.19;;;5.40;100.00
70304;BME280;57712;48.752;11.348;2023-01-24T13:09:24;99008.47;;;5.37;100.00
70304;BME280;57712;48.752;11.348;2023-01-24T13:11:25;99015.25;;;5.43;100.00
70304;BME280;57712;48.752;11.348;2023-01-24T13:14:03;99023.69;;;5.26;100.00
70304;BME280;57712;48.752;11.348;2023-01-24T13:33:49;99040.09;;;4.77;100.00
70304;BME280;57712;48.752;11.348;2023-01-24T13:36:22;99045.53;;;4.77;100.00
70304;BME280;57712;48.752;11.348;2023-01-24T13:38:49;99041.47;;;4.58;100.00
70304;BME280;57712;48.752;11.348;2023-01-24T13:41:32;99046.47;;;4.56;100.00
70304;BME280;57712;48.752;11.348;2023-01-24T13:46:56;99062.53;;;4.49;100.00
70304;BME280;57712;48.752;11.348;2023-01-24T13:51:49;99061.63;;;4.45;100.00
70304;BME280;57712;48.752;11.348;2023-01-24T13:59:41;99061.63;;;4.45;100.00
70304;BME280;57712;48.752;11.348;2023-01-24T14:02:40;99059.47;;;4.51;100.00
70304;BME280;57712;48.752;11.348;2023-01-24T14:10:37;99062.97;;;4.27;100.00
70304;BME280;57712;48.752;11.348;2023-01-24T14:13:09;99064.13;;;4.38;100.00
70304;BME280;57712;48.752;11.348;2023-01-24T14:15:51;99068.06;;;4.28;100.00
70304;BME280;57712;48.752;11.348;2023-01-24T14:18:48;99068.97;;;4.32;100.00
70304;BME280;57712;48.752;11.348;2023-01-24T14:21:34;99072.25;;;4.38;100.00
70304;BME280;57712;48.752;11.348;2023-01-24T14:26:44;99071.34;;;4.22;100.00
70304;BME280;57712;48.752;11.348;2023-01-24T14:29:16;99077.22;;;4.24;100.00
70304;BME280;57712;48.752;11.348;2023-01-24T14:31:46;99083.16;;;4.05;100.00
70304;BME280;57712;48.752;11.348;2023-01-24T14:36:59;99088.13;;;4.03;100.00
70304;BME280;57712;48.752;11.348;2023-01-24T14:39:26;99090.06;;;4.15;100.00
70304;BME280;57712;48.752;11.348;2023-01-24T14:42:01;99084.88;;;4.10;100.00
70304;BME280;57712;48.752;11.348;2023-01-24T14:44:31;99094.34;;;4.03;100.00
70304;BME280;57712;48.752;11.348;2023-01-24T14:47:00;99090.94;;;3.94;100.00
70304;BME280;57712;48.752;11.348;2023-01-24T14:49:36;99093.19;;;3.92;100.00
70304;BME280;57712;48.752;11.348;2023-01-24T14:52:19;99084.53;;;3.99;100.00
70304;BME280;57712;48.752;11.348;2023-01-24T14:57:20;99092.03;;;3.81;100.00
70304;BME280;57712;48.752;11.348;2023-01-24T15:02:27;99092.72;;;3.78;100.00
70304;BME280;57712;48.752;11.348;2023-01-24T15:04:54;99091.78;;;3.74;100.00
70304;BME280;57712;48.752;11.348;2023-01-24T15:07:21;99080.94;;;3.74;100.00